Algona, IA

11:54 PM CDT on July 09, 2014 (GMT -0500)
Estherville Municipal (KEST) Elev 1316 ft | 43.40 °N, 94.75 °W | Change Station

Current weather conditions updated 1 hour ago

Clear
Clear
66 °F
Feels Like 66 °F
N
5
Wind Variable Wind from ESE

Tomorrow is forecast to be nearly the same temperature as today. Showers tomorrow night.

Today
High -- | Low -- °F
--% Chance of Precip.
Yesterday
High -- | Low -- °F
Precip. -- in
5:46 AM 8:57 PM
Waxing Gibbous, 93% visible
Pressure 30.01 in
Visibility 9.0 miles
Clouds Clear
Dew Point 54 °F
Humidity 65%
Rainfall 0.00 in
Snow Depth Not available.
UV 0 out of 12
Pollen 3.50 out of 12
Air Quality Not available.
Flu Activity Sporadic
METAR KEST 100352Z AUTO 11004KT 9SM CLR 19/12 A3002 RMK AO2 SLP160 T01890122

More Conditions Fewer Conditions

Pressure 30.01 in
Visibility 9.0 miles
Clouds Clear
Dew Point 54 °F
Humidity 65%
Rainfall 0.00 in
Snow Depth Not available.
UV 0 out of 12
Pollen 3.50 out of 12
Air Quality Not available.
Flu Activity Sporadic
METAR KEST 100352Z AUTO 11004KT 9SM CLR 19/12 A3002 RMK AO2 SLP160 T01890122

More Conditions Fewer Conditions

10-Day Weather Forecast

Almanac

Astronomy

Jul. 09, 2014 Rise Set
Actual Time 5:46 AM CDT 8:57 PM CDT
Civil Twilight 5:11 AM CDT 9:32 PM CDT
Nautical Twilight 4:27 AM CDT 10:16 PM CDT
Astronomical Twilight 3:32 AM CDT 11:10 PM CDT
Moon 6:07 PM CDT (7/9) 3:07 AM CDT (7/9)
Length of Visible Light 16h 20m
Length of Day
15h 11m
Tomorrow will be 1m 12s shorter.
Waxing Gibbous, 93% of the Moon is Illuminated
Jul 10
Waxing Gibbous
Jul 12
Full
Jul 18
Last Quarter
Jul 26
New
Aug 3
First Quarter

Yesterday's Extremes

State Highs State Lows

Community

WunderPhotos

Upload Photos

1,732,072 photos uploaded!

Nearby

Snow Depth

Station Depth Elevation
No new snow has been reported.

Earthquake Activity

City Distance Mag. Time & Date
No recent earthquake activity has been reported nearby.
Minimum magnitude displayed is 2.5.

Coastal Water Temperatures

Place Temperature
No Stations Reporting

Nearby Weather Stations

Station Location Temp. Dew Point Humidity Wind Precip. Elev Updated Type
Farm Acreage, Bode, IA 65.7 °F 62 °F 87% SE  at  0.0 mph 0.00 in / hr 1130 ft 11:51 PM CDT Normal
SW Ottosen, OTTOSEN, IA 65.5 °F 64 °F 95% South  at  0.0 mph 0.00 in / hr 1175 ft 11:54 PM CDT Rapid Fire
Erin Township Trading Post, Britt, IA 65.9 °F 61 °F 84% SSW  at  0.0 mph 0.00 in / hr 1178 ft 11:50 PM CDT Normal
273 1st ST SW, Britt, IA 65.1 °F 60 °F 84% SSW  at  0.0 mph 0.00 in / hr 1214 ft 11:40 PM CDT Normal
Plover Pit, Plover, IA 66.4 °F 64 °F 92% SE  at  1.0 mph 0.00 in / hr 1190 ft 11:50 PM CDT Normal
AIRNow Emmetsburg, ILCC , Emmetsburg, IA 67 °F - - North  at  - 0.00 in / hr 1249 ft 11:00 PM CDT MADIS
Dakota City, IA 66.6 °F 64 °F 90% SW  at  0.0 mph 0.00 in / hr 1130 ft 11:51 PM CDT Normal
Mallard, Mallard, IA 65.3 °F 64 °F 95% NNE  at  0.0 mph 0.00 in / hr 1224 ft 11:50 PM CDT Normal

Show More Stations Show Fewer Stations